Time;durP1;ratioP1;P1;durP2;ratioP2;P2;SDS_P1;SDS_P2;PMS_P1;PMS_P2;Temp;Humidity;BMP_temperature;BMP_pressure;BME280_temperature;BME280_humidity;BME280_pressure;Samples;Min_cycle;Max_cycle;Signal;HPM_P1;HPM_P2
2021/08/05 00:01:49;;;;;;;31.55;20.35;;;;;;;;;;5006940;28;20037;-60
2021/08/05 00:04:14;;;;;;;28.02;18.77;;;;;;;;;;5008111;28;20553;-59
2021/08/05 00:06:40;;;;;;;33.72;20.42;;;;;;;;;;5008052;28;20099;-60
2021/08/05 00:09:06;;;;;;;29.27;18.75;;;;;;;;;;4991713;28;20107;-60
2021/08/05 00:11:32;;;;;;;25.88;18.23;;;;;;;;;;5005904;28;20038;-58
2021/08/05 00:13:58;;;;;;;29.23;18.73;;;;;;;;;;5008046;28;20034;-61
2021/08/05 00:16:24;;;;;;;30.92;19.52;;;;;;;;;;5006524;28;20045;-58
2021/08/05 00:18:50;;;;;;;27.73;18.15;;;;;;;;;;5005558;28;20129;-60
2021/08/05 00:21:19;;;;;;;27.13;17.90;;;;;;;;;;5007383;28;22129;-61
2021/08/05 00:23:45;;;;;;;28.13;19.13;;;;;;;;;;5007409;28;20030;-60
2021/08/05 00:26:12;;;;;;;25.70;17.55;;;;;;;;;;5009849;28;20068;-60
2021/08/05 00:28:38;;;;;;;25.85;17.27;;;;;;;;;;5006490;28;20045;-60
2021/08/05 00:31:04;;;;;;;26.85;18.15;;;;;;;;;;5007456;28;20045;-60
2021/08/05 00:33:31;;;;;;;26.05;17.55;;;;;;;;;;5005423;28;20041;-59
2021/08/05 00:35:57;;;;;;;26.95;18.25;;;;;;;;;;4993313;28;20048;-60
2021/08/05 00:38:22;;;;;;;25.17;17.23;;;;;;;;;;5004745;28;22022;-60
2021/08/05 00:40:48;;;;;;;30.17;18.25;;;;;;;;;;5007401;28;20033;-60
2021/08/05 00:43:14;;;;;;;27.05;17.67;;;;;;;;;;5007878;28;20220;-60
2021/08/05 00:45:40;;;;;;;26.33;17.77;;;;;;;;;;5004347;28;20492;-61
2021/08/05 00:48:06;;;;;;;27.40;17.83;;;;;;;;;;5006667;28;20064;-60
2021/08/05 00:50:32;;;;;;;27.48;17.50;;;;;;;;;;5006049;28;20087;-61
2021/08/05 00:52:58;;;;;;;26.02;16.40;;;;;;;;;;4989732;28;20128;-60
2021/08/05 00:55:24;;;;;;;26.15;17.63;;;;;;;;;;5004862;28;20036;-60
2021/08/05 00:57:50;;;;;;;26.45;17.38;;;;;;;;;;4996537;28;20045;-60
2021/08/05 01:00:16;;;;;;;26.98;17.50;;;;;;;;;;5005974;28;20040;-60
2021/08/05 01:02:45;;;;;;;27.23;17.73;;;;;;;;;;5005630;28;20046;-60
2021/08/05 01:05:11;;;;;;;28.48;18.02;;;;;;;;;;5007942;28;20084;-59
2021/08/05 01:07:37;;;;;;;26.58;17.48;;;;;;;;;;5003503;28;20046;-60
2021/08/05 01:10:26;;;;;;;27.70;17.65;;;;;;;;;;5006139;28;20293;-59
2021/08/05 01:13:27;;;;;;;28.08;18.40;;;;;;;;;;4995803;28;20050;-59
2021/08/05 01:15:54;;;;;;;25.80;17.50;;;;;;;;;;4957837;28;20045;-59
2021/08/05 01:18:26;;;;;;;24.88;16.98;;;;;;;;;;5004371;28;20112;-58
2021/08/05 01:20:53;;;;;;;26.42;17.75;;;;;;;;;;5004147;28;20077;-59
2021/08/05 01:23:37;;;;;;;24.33;16.48;;;;;;;;;;5006446;28;20131;-57
2021/08/05 01:26:15;;;;;;;25.55;17.20;;;;;;;;;;5005627;28;20056;-60
2021/08/05 01:28:43;;;;;;;27.30;17.65;;;;;;;;;;5005582;28;20058;-59
2021/08/05 01:31:09;;;;;;;27.40;17.15;;;;;;;;;;5006552;28;20049;-59
2021/08/05 01:33:36;;;;;;;27.27;17.58;;;;;;;;;;5005187;28;20747;-60
2021/08/05 01:36:03;;;;;;;28.70;17.80;;;;;;;;;;5006621;28;20755;-60
2021/08/05 01:38:31;;;;;;;34.50;13.77;;;;;;;;;;5004054;28;20056;-59
2021/08/05 01:40:56;;;;;;;29.63;12.48;;;;;;;;;;4995798;28;20034;-59
2021/08/05 01:43:22;;;;;;;29.55;12.10;;;;;;;;;;5005579;28;20091;-61
2021/08/05 01:45:48;;;;;;;26.77;12.38;;;;;;;;;;5006950;28;20224;-60
2021/08/05 01:48:15;;;;;;;26.40;12.68;;;;;;;;;;5005198;28;20100;-60
2021/08/05 01:50:44;;;;;;;22.23;12.02;;;;;;;;;;5006192;28;20041;-60
2021/08/05 01:53:12;;;;;;;30.65;12.73;;;;;;;;;;5006013;28;20065;-59
2021/08/05 01:55:38;;;;;;;23.67;12.38;;;;;;;;;;5005320;28;20180;-59
2021/08/05 01:58:04;;;;;;;20.60;12.65;;;;;;;;;;5004046;28;20064;-59
2021/08/05 02:00:29;;;;;;;27.67;12.88;;;;;;;;;;5004806;28;20045;-59
2021/08/05 02:02:55;;;;;;;24.52;12.63;;;;;;;;;;5006959;28;20471;-59
2021/08/05 02:05:21;;;;;;;25.55;12.50;;;;;;;;;;5007814;28;20632;-59
2021/08/05 02:08:02;;;;;;;20.17;11.23;;;;;;;;;;5008851;28;20060;-59
2021/08/05 02:10:33;;;;;;;17.80;10.57;;;;;;;;;;5006553;28;20080;-60
2021/08/05 02:13:01;;;;;;;23.63;9.70;;;;;;;;;;5010389;28;20049;-60
2021/08/05 02:15:28;;;;;;;21.85;10.18;;;;;;;;;;4990007;28;20084;-59
2021/08/05 02:17:55;;;;;;;19.02;10.30;;;;;;;;;;5007113;28;20041;-59
2021/08/05 02:20:21;;;;;;;17.90;9.27;;;;;;;;;;5007785;28;20057;-58
2021/08/05 02:22:47;;;;;;;18.25;10.65;;;;;;;;;;5007833;28;20396;-58
2021/08/05 02:25:13;;;;;;;21.58;10.68;;;;;;;;;;5008588;28;20397;-59
2021/08/05 02:27:39;;;;;;;20.35;11.75;;;;;;;;;;4989460;28;20049;-59
2021/08/05 02:30:06;;;;;;;20.85;11.98;;;;;;;;;;5013341;28;20042;-59
2021/08/05 02:32:32;;;;;;;22.05;11.80;;;;;;;;;;5009730;28;20042;-59
2021/08/05 02:35:08;;;;;;;23.05;13.02;;;;;;;;;;5010732;28;20104;-59
2021/08/05 02:37:35;;;;;;;20.90;12.27;;;;;;;;;;5013052;28;20042;-59
2021/08/05 02:40:01;;;;;;;23.55;14.10;;;;;;;;;;5011725;28;20512;-61
2021/08/05 02:42:27;;;;;;;20.40;12.57;;;;;;;;;;5011487;28;20042;-60
2021/08/05 02:44:54;;;;;;;30.70;12.93;;;;;;;;;;5016753;28;20045;-57
2021/08/05 02:47:20;;;;;;;22.25;12.70;;;;;;;;;;5010164;28;20060;-61
2021/08/05 02:49:46;;;;;;;22.83;12.68;;;;;;;;;;5012469;28;20385;-58
2021/08/05 02:52:13;;;;;;;27.85;12.32;;;;;;;;;;5010308;28;20041;-57
2021/08/05 02:54:38;;;;;;;22.73;12.48;;;;;;;;;;5009336;28;20180;-58
2021/08/05 02:57:04;;;;;;;27.30;13.10;;;;;;;;;;5009861;28;20026;-59
2021/08/05 02:59:30;;;;;;;25.33;13.63;;;;;;;;;;5007914;28;20655;-58
2021/08/05 03:01:57;;;;;;;22.63;12.27;;;;;;;;;;5009252;28;20037;-58
2021/08/05 03:04:23;;;;;;;22.42;11.63;;;;;;;;;;5008227;28;20053;-57
2021/08/05 03:06:49;;;;;;;21.83;11.45;;;;;;;;;;5008798;28;20502;-59
2021/08/05 03:09:15;;;;;;;25.08;11.88;;;;;;;;;;5008149;28;20053;-57
2021/08/05 03:11:41;;;;;;;18.50;10.32;;;;;;;;;;5007619;28;20028;-58
2021/08/05 03:14:06;;;;;;;18.58;9.25;;;;;;;;;;5008390;28;20115;-58
2021/08/05 03:16:32;;;;;;;18.60;9.32;;;;;;;;;;5010609;28;20057;-59
2021/08/05 03:18:58;;;;;;;17.60;8.65;;;;;;;;;;5010902;28;20601;-62
2021/08/05 03:21:24;;;;;;;17.70;8.30;;;;;;;;;;5007859;28;20041;-59
2021/08/05 03:23:50;;;;;;;19.92;10.40;;;;;;;;;;5007260;28;20411;-59
2021/08/05 03:26:15;;;;;;;15.68;9.02;;;;;;;;;;5006437;28;20057;-61
2021/08/05 03:28:41;;;;;;;14.68;8.57;;;;;;;;;;5007978;28;20092;-57
2021/08/05 03:31:07;;;;;;;15.75;8.65;;;;;;;;;;5008150;28;20071;-58
2021/08/05 03:33:33;;;;;;;13.00;8.02;;;;;;;;;;5007279;28;20048;-59
2021/08/05 03:35:59;;;;;;;14.88;8.65;;;;;;;;;;5007470;28;20038;-58
2021/08/05 03:38:24;;;;;;;15.75;8.43;;;;;;;;;;5006351;28;20462;-58
2021/08/05 03:40:50;;;;;;;17.58;8.88;;;;;;;;;;5007559;28;20056;-58
2021/08/05 03:43:16;;;;;;;15.73;8.95;;;;;;;;;;5007969;28;20045;-58
2021/08/05 03:45:42;;;;;;;15.38;8.45;;;;;;;;;;5006903;28;20518;-58
2021/08/05 03:48:08;;;;;;;16.48;8.68;;;;;;;;;;5005742;28;20072;-58
2021/08/05 03:50:33;;;;;;;15.07;8.57;;;;;;;;;;5005548;28;20068;-57
2021/08/05 03:52:59;;;;;;;17.13;8.93;;;;;;;;;;5007142;28;20033;-57
2021/08/05 03:55:25;;;;;;;17.30;9.05;;;;;;;;;;5015005;28;20052;-57
2021/08/05 03:57:51;;;;;;;16.35;9.02;;;;;;;;;;5017263;28;20456;-57
2021/08/05 04:00:17;;;;;;;13.75;8.65;;;;;;;;;;5012901;28;20049;-56
2021/08/05 04:02:44;;;;;;;17.65;8.95;;;;;;;;;;4991611;28;20441;-56
2021/08/05 04:05:10;;;;;;;25.15;10.10;;;;;;;;;;5011090;28;20061;-57
2021/08/05 04:07:36;;;;;;;21.38;8.93;;;;;;;;;;5006965;28;20049;-58
2021/08/05 04:10:02;;;;;;;16.80;8.85;;;;;;;;;;5006230;28;20156;-55
2021/08/05 04:12:28;;;;;;;17.55;9.13;;;;;;;;;;5007252;28;20096;-58
2021/08/05 04:14:54;;;;;;;17.67;9.02;;;;;;;;;;5007263;28;20124;-56
2021/08/05 04:17:20;;;;;;;15.93;9.07;;;;;;;;;;5003637;28;20084;-56
2021/08/05 04:19:45;;;;;;;15.48;8.52;;;;;;;;;;5006910;28;20056;-57
2021/08/05 04:22:11;;;;;;;15.48;8.13;;;;;;;;;;5008195;28;20065;-56
2021/08/05 04:24:37;;;;;;;16.50;8.43;;;;;;;;;;5006370;28;20037;-57
2021/08/05 04:27:04;;;;;;;15.10;8.93;;;;;;;;;;5005390;28;20053;-56
2021/08/05 04:29:30;;;;;;;17.73;9.20;;;;;;;;;;5005145;28;20061;-57
2021/08/05 04:31:56;;;;;;;17.35;9.23;;;;;;;;;;5005735;28;20140;-56
2021/08/05 04:34:21;;;;;;;18.23;7.97;;;;;;;;;;5004753;28;20125;-55
2021/08/05 04:36:47;;;;;;;16.20;8.13;;;;;;;;;;5007102;28;20077;-56
2021/08/05 04:39:13;;;;;;;16.88;8.88;;;;;;;;;;5005797;28;20072;-56
2021/08/05 04:41:39;;;;;;;15.82;8.65;;;;;;;;;;4989863;28;20489;-56
2021/08/05 04:44:05;;;;;;;16.05;8.52;;;;;;;;;;5006252;28;20069;-55
2021/08/05 04:46:31;;;;;;;17.15;9.52;;;;;;;;;;5005410;28;20042;-56
2021/08/05 04:48:57;;;;;;;18.98;10.32;;;;;;;;;;5005447;28;20180;-56
2021/08/05 04:51:23;;;;;;;16.35;9.68;;;;;;;;;;5003890;28;20553;-56
2021/08/05 04:53:48;;;;;;;19.30;10.32;;;;;;;;;;5006780;28;20061;-56
2021/08/05 04:56:14;;;;;;;20.17;10.38;;;;;;;;;;5006103;28;20034;-56
2021/08/05 04:58:40;;;;;;;19.20;9.90;;;;;;;;;;5005118;28;20157;-56
2021/08/05 05:01:06;;;;;;;18.27;10.25;;;;;;;;;;5005067;28;20517;-56
2021/08/05 05:03:31;;;;;;;16.85;10.32;;;;;;;;;;5004110;28;20052;-56
2021/08/05 05:05:57;;;;;;;20.95;10.52;;;;;;;;;;5005744;28;20056;-53
2021/08/05 05:08:26;;;;;;;25.17;11.38;;;;;;;;;;5003363;28;20049;-56
2021/08/05 05:10:53;;;;;;;18.65;11.00;;;;;;;;;;5006916;28;20529;-56
2021/08/05 05:13:19;;;;;;;19.17;11.85;;;;;;;;;;5004273;28;20072;-56
2021/08/05 05:15:45;;;;;;;21.13;11.57;;;;;;;;;;5005686;28;20045;-56
2021/08/05 05:18:12;;;;;;;24.30;11.60;;;;;;;;;;5004764;28;20053;-56
2021/08/05 05:20:38;;;;;;;19.85;10.57;;;;;;;;;;5005131;28;20057;-56
2021/08/05 05:23:04;;;;;;;19.88;10.40;;;;;;;;;;5005057;28;20069;-56
2021/08/05 05:25:30;;;;;;;17.45;10.45;;;;;;;;;;5004404;28;20120;-57
2021/08/05 05:27:56;;;;;;;21.20;10.48;;;;;;;;;;5004216;28;20520;-56
2021/08/05 05:30:22;;;;;;;18.38;10.93;;;;;;;;;;5003745;28;20561;-57
2021/08/05 05:32:48;;;;;;;20.45;10.70;;;;;;;;;;5005724;28;20046;-57
2021/08/05 05:35:15;;;;;;;18.35;10.05;;;;;;;;;;5004902;28;22026;-57
2021/08/05 05:37:41;;;;;;;19.90;10.48;;;;;;;;;;5008239;28;20095;-56
2021/08/05 05:40:08;;;;;;;18.77;9.88;;;;;;;;;;5010144;28;20060;-59
2021/08/05 05:42:34;;;;;;;21.05;10.23;;;;;;;;;;5008041;28;20057;-57
2021/08/05 05:45:00;;;;;;;21.27;9.85;;;;;;;;;;5008011;28;20049;-57
2021/08/05 05:47:26;;;;;;;20.92;10.15;;;;;;;;;;4994410;28;20086;-57
2021/08/05 05:49:53;;;;;;;18.25;10.55;;;;;;;;;;5007128;28;20042;-56
2021/08/05 05:52:19;;;;;;;20.98;10.35;;;;;;;;;;5009021;28;20046;-57
2021/08/05 05:54:45;;;;;;;22.05;10.88;;;;;;;;;;5009905;28;20037;-54
2021/08/05 05:57:10;;;;;;;22.30;11.00;;;;;;;;;;5011308;28;20049;-56
2021/08/05 05:59:37;;;;;;;17.25;10.07;;;;;;;;;;5010979;28;20049;-64
2021/08/05 06:02:02;;;;;;;21.13;11.20;;;;;;;;;;5012361;28;20497;-56
2021/08/05 06:04:28;;;;;;;18.42;10.07;;;;;;;;;;5011228;28;20140;-56
2021/08/05 06:06:56;;;;;;;19.17;9.98;;;;;;;;;;5011099;28;20045;-57
2021/08/05 06:09:22;;;;;;;22.55;10.50;;;;;;;;;;5008524;28;20069;-56
2021/08/05 06:11:48;;;;;;;24.65;10.65;;;;;;;;;;5008840;28;20129;-57
2021/08/05 06:14:14;;;;;;;21.20;10.32;;;;;;;;;;5009567;28;20041;-56
2021/08/05 06:16:41;;;;;;;19.27;9.70;;;;;;;;;;5008735;28;20818;-57
2021/08/05 06:19:07;;;;;;;27.90;9.68;;;;;;;;;;5007936;28;20052;-56
2021/08/05 06:21:32;;;;;;;21.27;9.10;;;;;;;;;;5009435;28;20030;-57
2021/08/05 06:23:58;;;;;;;16.50;8.90;;;;;;;;;;5009682;28;20046;-56
2021/08/05 06:26:24;;;;;;;17.95;9.18;;;;;;;;;;5007762;28;20160;-56
2021/08/05 06:28:51;;;;;;;16.67;9.70;;;;;;;;;;5009358;28;20061;-57
2021/08/05 06:31:18;;;;;;;19.42;9.75;;;;;;;;;;5008928;28;20064;-57
2021/08/05 06:33:44;;;;;;;16.65;9.27;;;;;;;;;;5008370;28;20939;-57
2021/08/05 06:36:10;;;;;;;16.05;8.50;;;;;;;;;;5009312;28;20091;-57
2021/08/05 06:38:37;;;;;;;19.15;9.25;;;;;;;;;;5007560;28;20030;-57
2021/08/05 06:41:02;;;;;;;17.23;8.70;;;;;;;;;;5009296;28;20041;-58
2021/08/05 06:43:28;;;;;;;18.92;9.55;;;;;;;;;;5007629;28;20119;-56
2021/08/05 06:45:54;;;;;;;17.90;9.02;;;;;;;;;;5009574;28;20045;-56
2021/08/05 06:48:20;;;;;;;18.48;9.23;;;;;;;;;;5006112;28;20510;-56
2021/08/05 06:50:45;;;;;;;20.00;9.10;;;;;;;;;;5009008;28;20100;-56
2021/08/05 06:53:11;;;;;;;18.13;9.35;;;;;;;;;;5009044;28;20560;-56
2021/08/05 06:55:37;;;;;;;16.48;9.35;;;;;;;;;;5006501;28;20099;-56
2021/08/05 06:58:03;;;;;;;22.25;9.02;;;;;;;;;;5008218;28;20045;-56
2021/08/05 07:00:29;;;;;;;19.02;9.43;;;;;;;;;;5006944;28;20565;-56
2021/08/05 07:02:55;;;;;;;18.25;9.23;;;;;;;;;;5007924;28;20037;-56
2021/08/05 07:05:20;;;;;;;18.05;9.57;;;;;;;;;;5007401;28;20041;-54
2021/08/05 07:07:46;;;;;;;20.40;9.60;;;;;;;;;;5007837;28;20145;-56
2021/08/05 07:10:12;;;;;;;17.08;8.90;;;;;;;;;;5007621;28;20036;-57
2021/08/05 07:12:38;;;;;;;17.02;8.75;;;;;;;;;;5008377;28;20067;-55
2021/08/05 07:15:04;;;;;;;18.58;8.38;;;;;;;;;;5009335;28;20049;-56
2021/08/05 07:17:30;;;;;;;19.52;9.30;;;;;;;;;;5007868;28;20440;-56
2021/08/05 07:19:56;;;;;;;17.40;9.15;;;;;;;;;;5009176;28;20109;-56
2021/08/05 07:22:22;;;;;;;16.58;8.63;;;;;;;;;;5007538;28;20037;-57
2021/08/05 07:24:48;;;;;;;18.67;8.90;;;;;;;;;;5008260;28;20068;-56
2021/08/05 07:27:14;;;;;;;20.02;9.40;;;;;;;;;;5008529;28;20046;-56
2021/08/05 07:29:39;;;;;;;18.10;9.45;;;;;;;;;;5007688;28;20127;-53
2021/08/05 07:32:05;;;;;;;18.23;9.18;;;;;;;;;;5008638;28;20034;-57
2021/08/05 07:34:34;;;;;;;17.17;8.63;;;;;;;;;;5005481;28;20056;-57
2021/08/05 07:37:01;;;;;;;19.40;9.18;;;;;;;;;;5007309;28;20049;-57
2021/08/05 07:39:26;;;;;;;17.95;9.10;;;;;;;;;;5005760;28;20045;-56
2021/08/05 07:41:52;;;;;;;16.10;8.70;;;;;;;;;;5007412;28;20056;-55
2021/08/05 07:44:19;;;;;;;15.82;9.05;;;;;;;;;;5006477;28;20136;-57
2021/08/05 07:46:47;;;;;;;18.33;9.82;;;;;;;;;;5007924;28;20417;-57
2021/08/05 07:49:13;;;;;;;20.58;10.02;;;;;;;;;;5007869;28;20128;-57
2021/08/05 07:51:39;;;;;;;21.60;9.20;;;;;;;;;;5005729;28;20051;-57
2021/08/05 07:54:05;;;;;;;18.92;9.27;;;;;;;;;;4991096;28;20422;-57
2021/08/05 07:56:31;;;;;;;20.85;9.82;;;;;;;;;;5005990;28;20030;-56
2021/08/05 07:58:57;;;;;;;17.52;9.45;;;;;;;;;;5007407;28;20044;-56
2021/08/05 08:01:23;;;;;;;16.63;8.80;;;;;;;;;;5006617;28;20045;-56
2021/08/05 08:03:49;;;;;;;15.68;8.88;;;;;;;;;;5006567;28;20037;-56
2021/08/05 08:06:15;;;;;;;17.25;9.13;;;;;;;;;;5005787;28;20038;-56
2021/08/05 08:08:40;;;;;;;19.05;8.88;;;;;;;;;;5005099;28;20049;-57
2021/08/05 08:11:06;;;;;;;16.90;9.32;;;;;;;;;;5005462;28;22400;-56
2021/08/05 08:13:32;;;;;;;17.48;9.00;;;;;;;;;;5006178;28;20052;-56
2021/08/05 08:15:58;;;;;;;18.58;9.75;;;;;;;;;;5007263;28;20044;-55
2021/08/05 08:18:24;;;;;;;19.50;8.93;;;;;;;;;;5004853;28;20042;-56
2021/08/05 08:20:50;;;;;;;17.20;9.07;;;;;;;;;;5005693;28;20038;-55
2021/08/05 08:23:16;;;;;;;17.20;9.75;;;;;;;;;;5008454;28;20406;-57
2021/08/05 08:25:42;;;;;;;15.77;9.02;;;;;;;;;;5005827;28;20057;-57
2021/08/05 08:28:08;;;;;;;25.77;9.32;;;;;;;;;;5005831;28;20113;-56
2021/08/05 08:30:34;;;;;;;18.73;9.73;;;;;;;;;;5008444;28;20034;-56
2021/08/05 08:33:00;;;;;;;18.25;10.18;;;;;;;;;;5007826;28;20052;-56
2021/08/05 08:35:26;;;;;;;15.50;9.45;;;;;;;;;;5007236;28;20042;-57
2021/08/05 08:37:52;;;;;;;23.30;9.48;;;;;;;;;;4988630;28;20036;-54
2021/08/05 08:40:18;;;;;;;15.50;8.63;;;;;;;;;;5006250;28;20052;-55
2021/08/05 08:42:44;;;;;;;17.85;8.98;;;;;;;;;;5007031;28;20334;-55
2021/08/05 08:45:11;;;;;;;16.17;8.25;;;;;;;;;;5006244;28;20126;-55
2021/08/05 08:47:37;;;;;;;19.15;9.13;;;;;;;;;;5003676;28;20048;-56
2021/08/05 08:50:04;;;;;;;17.05;9.00;;;;;;;;;;5006719;28;20129;-55
2021/08/05 08:52:31;;;;;;;22.98;9.95;;;;;;;;;;5005439;28;20058;-55
2021/08/05 08:54:57;;;;;;;16.67;9.40;;;;;;;;;;5005822;28;20116;-55
2021/08/05 08:57:26;;;;;;;17.50;9.00;;;;;;;;;;4988629;28;20121;-55
2021/08/05 08:59:52;;;;;;;16.98;9.07;;;;;;;;;;5006732;28;20074;-55
2021/08/05 09:02:18;;;;;;;22.92;9.95;;;;;;;;;;5006616;28;20042;-55
2021/08/05 09:04:45;;;;;;;18.88;9.75;;;;;;;;;;5005523;28;20044;-55
2021/08/05 09:07:11;;;;;;;17.75;10.15;;;;;;;;;;5004111;28;20120;-55
2021/08/05 09:09:37;;;;;;;19.42;9.75;;;;;;;;;;5007575;28;20055;-55
2021/08/05 09:12:03;;;;;;;17.88;9.38;;;;;;;;;;5006717;28;20038;-55
2021/08/05 09:14:44;;;;;;;20.25;9.32;;;;;;;;;;5004554;28;20053;-54
2021/08/05 09:17:30;;;;;;;18.30;9.95;;;;;;;;;;5005996;28;20045;-55
2021/08/05 09:19:57;;;;;;;19.45;10.07;;;;;;;;;;5004749;28;20049;-54
2021/08/05 09:22:29;;;;;;;16.50;8.95;;;;;;;;;;4989920;28;20046;-55
2021/08/05 09:24:56;;;;;;;17.90;9.55;;;;;;;;;;5006597;28;20046;-55
2021/08/05 09:27:34;;;;;;;19.70;9.13;;;;;;;;;;5004424;28;20056;-58
2021/08/05 09:30:00;;;;;;;20.27;9.15;;;;;;;;;;4989391;28;20057;-55
2021/08/05 09:32:26;;;;;;;16.13;8.80;;;;;;;;;;5005905;28;20038;-55
2021/08/05 09:35:03;;;;;;;19.77;9.68;;;;;;;;;;5005384;28;20140;-55
2021/08/05 09:37:35;;;;;;;18.00;9.20;;;;;;;;;;5004074;28;20077;-55
2021/08/05 09:40:08;;;;;;;18.00;9.30;;;;;;;;;;5005826;28;20033;-55
2021/08/05 09:42:33;;;;;;;19.27;9.32;;;;;;;;;;5005446;28;20046;-55
2021/08/05 09:45:00;;;;;;;18.63;9.48;;;;;;;;;;5007068;28;20045;-55
2021/08/05 09:47:26;;;;;;;19.77;9.57;;;;;;;;;;5003971;28;20497;-55
2021/08/05 09:49:53;;;;;;;16.48;8.85;;;;;;;;;;5005844;28;20121;-55
2021/08/05 09:52:37;;;;;;;17.70;8.23;;;;;;;;;;5005365;28;20134;-55
2021/08/05 09:55:10;;;;;;;23.67;9.38;;;;;;;;;;5004800;28;20042;-55
2021/08/05 09:57:37;;;;;;;19.25;9.68;;;;;;;;;;5004026;28;20046;-56
2021/08/05 10:00:07;;;;;;;15.77;8.80;;;;;;;;;;5004882;28;20705;-55
2021/08/05 10:02:39;;;;;;;18.73;9.68;;;;;;;;;;5004558;28;20045;-58
2021/08/05 10:05:15;;;;;;;19.42;9.48;;;;;;;;;;5004460;28;20042;-55
2021/08/05 10:07:46;;;;;;;20.38;9.88;;;;;;;;;;5004051;28;20116;-55
2021/08/05 10:10:13;;;;;;;21.17;9.65;;;;;;;;;;5006287;28;20505;-54
2021/08/05 10:12:39;;;;;;;17.92;8.55;;;;;;;;;;4988913;28;20067;-55
2021/08/05 10:15:08;;;;;;;20.08;9.77;;;;;;;;;;5006350;28;20108;-55
2021/08/05 10:17:35;;;;;;;23.13;10.27;;;;;;;;;;5003886;28;20047;-56
2021/08/05 10:20:03;;;;;;;21.15;9.52;;;;;;;;;;5004628;28;20048;-56
2021/08/05 10:22:29;;;;;;;19.48;9.65;;;;;;;;;;5004816;28;20936;-55
2021/08/05 10:24:56;;;;;;;18.75;9.55;;;;;;;;;;5009110;28;20697;-53
2021/08/05 10:27:22;;;;;;;18.70;10.25;;;;;;;;;;5007107;28;20065;-56
2021/08/05 10:29:49;;;;;;;15.57;9.15;;;;;;;;;;4991273;28;20033;-55
2021/08/05 10:32:16;;;;;;;19.23;9.57;;;;;;;;;;5009336;28;20517;-54
2021/08/05 10:34:42;;;;;;;21.15;10.40;;;;;;;;;;5008853;28;20046;-56
2021/08/05 10:37:09;;;;;;;19.10;9.90;;;;;;;;;;5009400;28;20057;-55
2021/08/05 10:39:35;;;;;;;18.08;9.45;;;;;;;;;;5007749;28;20037;-54
2021/08/05 10:42:04;;;;;;;21.30;9.88;;;;;;;;;;5008992;28;20072;-55
2021/08/05 10:44:30;;;;;;;21.83;10.05;;;;;;;;;;5009723;28;20132;-54
2021/08/05 10:46:57;;;;;;;23.08;10.15;;;;;;;;;;5009605;28;20092;-56
2021/08/05 10:49:23;;;;;;;18.15;9.55;;;;;;;;;;5008601;28;20053;-54
2021/08/05 10:51:50;;;;;;;20.48;10.18;;;;;;;;;;5010394;28;20588;-53
2021/08/05 10:54:38;;;;;;;22.10;10.35;;;;;;;;;;5009669;28;20046;-56
2021/08/05 10:57:15;;;;;;;18.88;9.85;;;;;;;;;;4995967;28;20037;-55
2021/08/05 10:59:59;;;;;;;18.80;10.18;;;;;;;;;;5006373;28;20056;-55
2021/08/05 11:02:43;;;;;;;25.42;10.95;;;;;;;;;;5007244;28;20041;-55
2021/08/05 11:05:09;;;;;;;21.52;10.00;;;;;;;;;;5008355;28;20051;-55
2021/08/05 11:07:35;;;;;;;21.80;9.70;;;;;;;;;;5007146;28;20049;-54
2021/08/05 11:10:16;;;;;;;17.98;9.75;;;;;;;;;;5007567;28;20509;-53
2021/08/05 11:13:00;;;;;;;21.70;10.50;;;;;;;;;;5006978;28;20919;-55
2021/08/05 11:15:26;;;;;;;20.45;10.45;;;;;;;;;;5007287;28;20088;-55
2021/08/05 11:18:08;;;;;;;19.90;10.32;;;;;;;;;;5007277;28;20037;-54
2021/08/05 11:20:34;;;;;;;26.52;11.10;;;;;;;;;;4993025;28;20041;-53
2021/08/05 11:23:00;;;;;;;20.58;10.88;;;;;;;;;;5006877;28;20037;-54
2021/08/05 11:25:26;;;;;;;23.63;11.00;;;;;;;;;;5007694;28;20061;-53
2021/08/05 11:28:10;;;;;;;17.95;10.18;;;;;;;;;;5006362;28;20046;-56
2021/08/05 11:30:43;;;;;;;22.40;10.75;;;;;;;;;;5006277;28;20064;-54
2021/08/05 11:33:28;;;;;;;24.42;11.43;;;;;;;;;;4991658;28;20041;-54
2021/08/05 11:39:14;;;;;;;19.23;10.32;;;;;;;;;;5005349;28;20878;-55
2021/08/05 11:41:48;;;;;;;20.80;10.40;;;;;;;;;;4949572;28;20031;-55
2021/08/05 11:44:17;;;;;;;19.52;10.48;;;;;;;;;;4999354;28;20049;-56
2021/08/05 11:46:44;;;;;;;19.50;10.18;;;;;;;;;;5007384;28;20042;-56
2021/08/05 11:49:50;;;;;;;20.65;10.55;;;;;;;;;;5005778;28;20053;-56
2021/08/05 11:52:19;;;;;;;20.83;10.40;;;;;;;;;;4931192;29;20043;-55
2021/08/05 11:54:46;;;;;;;23.88;11.25;;;;;;;;;;4931788;29;20137;-55
2021/08/05 11:57:14;;;;;;;20.33;10.32;;;;;;;;;;4968281;28;20741;-55
2021/08/05 11:59:39;;;;;;;20.70;9.90;;;;;;;;;;5004619;28;20180;-55
2021/08/05 12:02:06;;;;;;;23.13;11.23;;;;;;;;;;5008035;28;20393;-56
2021/08/05 12:04:32;;;;;;;20.58;10.40;;;;;;;;;;5007650;28;20034;-56
2021/08/05 12:07:17;;;;;;;27.40;10.93;;;;;;;;;;5007582;28;20056;-55
2021/08/05 12:09:43;;;;;;;23.70;10.50;;;;;;;;;;5003028;28;20065;-55
2021/08/05 12:12:09;;;;;;;24.73;10.98;;;;;;;;;;5005002;28;20045;-57
2021/08/05 12:14:35;;;;;;;25.92;11.13;;;;;;;;;;5005485;28;20052;-55
2021/08/05 12:17:01;;;;;;;20.83;10.23;;;;;;;;;;5007558;28;20071;-56
2021/08/05 12:19:29;;;;;;;24.33;10.68;;;;;;;;;;5004930;28;20037;-56
2021/08/05 12:21:55;;;;;;;23.23;11.18;;;;;;;;;;5006614;28;20186;-55
2021/08/05 12:24:23;;;;;;;21.02;9.57;;;;;;;;;;5006108;28;20153;-53
2021/08/05 12:26:59;;;;;;;21.33;10.60;;;;;;;;;;5005758;28;20582;-57
2021/08/05 12:29:24;;;;;;;20.88;10.40;;;;;;;;;;5003188;28;20064;-57
2021/08/05 12:31:50;;;;;;;24.13;10.57;;;;;;;;;;5004681;28;21039;-59
2021/08/05 12:34:18;;;;;;;19.13;10.07;;;;;;;;;;5005221;28;20044;-59
2021/08/05 12:36:44;;;;;;;22.00;10.50;;;;;;;;;;5005621;28;20033;-58
2021/08/05 12:39:10;;;;;;;21.58;10.57;;;;;;;;;;5003201;28;20037;-58
2021/08/05 12:41:38;;;;;;;20.77;10.85;;;;;;;;;;5005173;28;20079;-58
2021/08/05 12:44:09;;;;;;;21.10;10.23;;;;;;;;;;5006753;28;20038;-58
2021/08/05 12:46:36;;;;;;;21.77;10.13;;;;;;;;;;5005919;28;20042;-58
2021/08/05 12:49:01;;;;;;;20.33;9.88;;;;;;;;;;5005233;28;20053;-57
2021/08/05 12:51:28;;;;;;;21.85;10.75;;;;;;;;;;4989022;28;20033;-57
2021/08/05 12:53:55;;;;;;;18.70;9.73;;;;;;;;;;5006539;28;20087;-59
2021/08/05 12:56:41;;;;;;;22.30;10.82;;;;;;;;;;5005553;28;20038;-58
2021/08/05 12:59:06;;;;;;;22.35;9.88;;;;;;;;;;5004862;28;20052;-59
2021/08/05 13:01:32;;;;;;;23.42;11.43;;;;;;;;;;5005347;28;20478;-58
2021/08/05 13:03:59;;;;;;;27.33;10.98;;;;;;;;;;5007247;28;20048;-58
2021/08/05 13:06:45;;;;;;;27.60;13.18;;;;;;;;;;5003624;28;20045;-58
2021/08/05 13:09:11;;;;;;;32.25;13.60;;;;;;;;;;5005945;28;20049;-59
2021/08/05 13:11:40;;;;;;;25.00;12.85;;;;;;;;;;5004723;28;20107;-58
2021/08/05 13:14:07;;;;;;;25.80;13.75;;;;;;;;;;5005951;28;20033;-59
2021/08/05 13:16:33;;;;;;;27.25;14.40;;;;;;;;;;5004155;28;20045;-57
2021/08/05 13:18:59;;;;;;;27.92;14.43;;;;;;;;;;5003268;28;20076;-55
2021/08/05 13:21:25;;;;;;;33.38;14.30;;;;;;;;;;5004626;28;20029;-57
2021/08/05 13:23:51;;;;;;;24.67;13.93;;;;;;;;;;5006397;28;20044;-58
2021/08/05 13:26:33;;;;;;;29.80;13.70;;;;;;;;;;5005897;28;20149;-58
2021/08/05 13:28:59;;;;;;;27.05;14.05;;;;;;;;;;5004110;28;20053;-59
2021/08/05 13:31:25;;;;;;;31.08;15.05;;;;;;;;;;5004278;28;20049;-55
2021/08/05 13:34:09;;;;;;;27.13;13.98;;;;;;;;;;5007120;28;21012;-58
2021/08/05 13:36:36;;;;;;;28.77;14.43;;;;;;;;;;5004219;28;20037;-59
2021/08/05 13:39:02;;;;;;;26.33;13.80;;;;;;;;;;5005526;28;20042;-58
2021/08/05 13:41:28;;;;;;;29.60;15.30;;;;;;;;;;5005285;28;20110;-59
2021/08/05 13:43:53;;;;;;;29.50;14.18;;;;;;;;;;5005912;28;20052;-56
2021/08/05 13:46:19;;;;;;;29.13;14.93;;;;;;;;;;5007044;28;20068;-57
2021/08/05 13:48:45;;;;;;;30.75;15.93;;;;;;;;;;5005994;28;20053;-55
2021/08/05 13:51:11;;;;;;;29.08;15.50;;;;;;;;;;4986972;28;20112;-56
2021/08/05 13:53:37;;;;;;;27.40;14.60;;;;;;;;;;5004345;28;20402;-53
2021/08/05 13:56:03;;;;;;;27.45;14.52;;;;;;;;;;5005035;28;20030;-57
2021/08/05 13:58:31;;;;;;;35.75;15.50;;;;;;;;;;5003935;28;20034;-56
2021/08/05 14:00:56;;;;;;;29.27;14.40;;;;;;;;;;5006752;28;20087;-61
2021/08/05 14:03:22;;;;;;;32.00;15.13;;;;;;;;;;5008005;28;20502;-57
2021/08/05 14:05:48;;;;;;;30.20;14.77;;;;;;;;;;5008673;28;20034;-57
2021/08/05 14:08:14;;;;;;;29.77;15.30;;;;;;;;;;5007700;28;20045;-57
2021/08/05 14:10:39;;;;;;;28.08;15.30;;;;;;;;;;5008297;28;20799;-56
2021/08/05 14:13:05;;;;;;;28.13;15.10;;;;;;;;;;5008554;28;20040;-55
2021/08/05 14:15:31;;;;;;;28.48;14.98;;;;;;;;;;5006950;28;20513;-53
2021/08/05 14:17:57;;;;;;;29.58;14.25;;;;;;;;;;5007308;28;20978;-56
2021/08/05 14:20:23;;;;;;;26.42;14.93;;;;;;;;;;5006675;28;20052;-57
2021/08/05 14:22:48;;;;;;;28.00;14.90;;;;;;;;;;5009632;28;20068;-57
2021/08/05 14:25:14;;;;;;;29.48;15.43;;;;;;;;;;5009402;28;20069;-57
2021/08/05 14:27:40;;;;;;;27.58;14.90;;;;;;;;;;5007119;28;20061;-57
2021/08/05 14:30:08;;;;;;;28.17;15.52;;;;;;;;;;5009129;28;20038;-56